createdAt,value
2023-01-25T00:02:02.453Z,103367.03
2023-01-25T00:06:04.063Z,103354.66
2023-01-25T00:10:06.039Z,103344.41
2023-01-25T00:14:07.870Z,103338.34
2023-01-25T00:18:09.303Z,103324.69
2023-01-25T00:22:10.768Z,103325.84
2023-01-25T00:26:12.384Z,103325.13
2023-01-25T00:30:14.102Z,103315.13
2023-01-25T00:34:24.442Z,103305.84
2023-01-25T00:38:33.885Z,103287.94
2023-01-25T00:42:35.328Z,103276.28
2023-01-25T00:46:36.824Z,103254.38
2023-01-25T00:50:38.329Z,103251.06
2023-01-25T00:54:39.929Z,103248.09
2023-01-25T00:58:41.723Z,103250.66
2023-01-25T01:02:43.230Z,103238.03
2023-01-25T01:06:44.740Z,103233.63
2023-01-25T01:10:46.178Z,103236.69
2023-01-25T01:14:47.670Z,103247.88
2023-01-25T01:18:49.177Z,103246.31
2023-01-25T01:22:52.433Z,103252.28
2023-01-25T01:26:53.895Z,103254.56
2023-01-25T01:31:00.477Z,103243.22
2023-01-25T01:35:01.927Z,103250.97
2023-01-25T01:39:03.607Z,103246.59
2023-01-25T01:43:07.813Z,103242.97
2023-01-25T01:47:15.579Z,103247.09
2023-01-25T01:51:40.080Z,103250.63
2023-01-25T01:55:41.532Z,103240.88
2023-01-25T02:00:14.502Z,103231.38
2023-01-25T02:04:18.610Z,103235.34
2023-01-25T02:08:21.119Z,103234.09
2023-01-25T02:12:23.995Z,103233.09
2023-01-25T02:16:27.698Z,103230.16
2023-01-25T02:20:39.164Z,103226.66
2023-01-25T02:24:47.236Z,103230.06
2023-01-25T02:29:03.080Z,103224.34
2023-01-25T02:33:04.586Z,103222.13
2023-01-25T02:37:06.110Z,103225.19
2023-01-25T02:41:13.743Z,103220.28
2023-01-25T02:45:18.982Z,103211.09
2023-01-25T02:49:20.778Z,103210.44
2023-01-25T02:53:22.193Z,103206.59
2023-01-25T02:57:23.736Z,103204.25
2023-01-25T03:01:25.605Z,103204.34
2023-01-25T03:05:27.182Z,103201.22
2023-01-25T03:09:28.622Z,103195.75
2023-01-25T03:13:31.911Z,103187.50
2023-01-25T03:17:33.479Z,103195.06
2023-01-25T03:21:35.003Z,103183.75
2023-01-25T03:25:36.458Z,103187.59
2023-01-25T03:29:38.235Z,103190.56
2023-01-25T03:33:40.575Z,103182.03
2023-01-25T03:37:42.111Z,103179.19
2023-01-25T03:41:43.585Z,103172.47
2023-01-25T03:45:45.172Z,103172.69
2023-01-25T03:49:46.639Z,103170.72
2023-01-25T03:53:48.088Z,103176.41
2023-01-25T03:57:49.906Z,103162.28
2023-01-25T04:01:51.612Z,103164.84
2023-01-25T04:05:54.470Z,103157.06
2023-01-25T04:09:55.891Z,103145.22
2023-01-25T04:13:57.330Z,103143.31
2023-01-25T04:17:58.794Z,103134.59
2023-01-25T04:22:00.218Z,103126.47
2023-01-25T04:26:08.276Z,103126.47
2023-01-25T04:30:10.316Z,103119.13
2023-01-25T04:34:11.744Z,103116.25
2023-01-25T04:38:13.655Z,103115.63
2023-01-25T04:42:15.182Z,103105.56
2023-01-25T04:46:16.688Z,103107.91
2023-01-25T04:50:18.170Z,103106.50
2023-01-25T04:54:19.599Z,103104.38
2023-01-25T04:58:21.778Z,103093.00
2023-01-25T05:02:23.335Z,103090.81
2023-01-25T05:06:24.844Z,103083.94
2023-01-25T05:10:26.301Z,103086.81
2023-01-25T05:14:27.764Z,103078.53
2023-01-25T05:18:42.620Z,103079.28
2023-01-25T05:22:48.749Z,103078.47
2023-01-25T05:27:05.278Z,103075.31
2023-01-25T05:31:06.837Z,103073.13
2023-01-25T05:35:09.118Z,103075.69
2023-01-25T05:39:10.772Z,103070.69
2023-01-25T05:43:12.229Z,103081.81
2023-01-25T05:47:15.750Z,103078.59
2023-01-25T05:51:17.259Z,103079.91
2023-01-25T05:55:18.847Z,103081.47
2023-01-25T05:59:20.300Z,103076.94
2023-01-25T06:03:21.786Z,103074.00
2023-01-25T06:07:24.788Z,103073.88
2023-01-25T06:11:26.299Z,103053.28
2023-01-25T06:15:27.776Z,103058.97
2023-01-25T06:19:29.226Z,103058.78
2023-01-25T06:23:31.415Z,103057.25
2023-01-25T06:27:32.911Z,103050.72
2023-01-25T06:31:34.944Z,103051.00
2023-01-25T06:35:36.663Z,103048.53
2023-01-25T06:39:38.421Z,103054.31
2023-01-25T06:43:40.047Z,103060.56
2023-01-25T06:47:41.573Z,103065.38
2023-01-25T06:51:43.009Z,103053.56
2023-01-25T06:55:44.493Z,103048.59
2023-01-25T06:59:45.970Z,103032.31
2023-01-25T07:03:52.170Z,103033.75
2023-01-25T07:07:53.596Z,103024.22
2023-01-25T07:11:55.064Z,103024.44
2023-01-25T07:16:05.894Z,103011.88
2023-01-25T07:20:07.883Z,103022.63
2023-01-25T07:24:14.438Z,103019.22
2023-01-25T07:28:17.222Z,103022.63
2023-01-25T07:32:18.673Z,103012.03
2023-01-25T07:36:21.242Z,103008.38
2023-01-25T07:40:25.396Z,103004.38
2023-01-25T07:44:26.910Z,102998.31
2023-01-25T07:48:28.585Z,103000.22
2023-01-25T07:52:30.043Z,102995.78
2023-01-25T07:56:40.736Z,102995.47
2023-01-25T08:00:42.265Z,102992.19
2023-01-25T08:04:45.411Z,102989.53
2023-01-25T08:08:48.667Z,102991.88
2023-01-25T08:12:50.063Z,102991.72
2023-01-25T08:16:51.527Z,102981.13
2023-01-25T08:20:53.049Z,102969.34
2023-01-25T08:24:54.982Z,102964.16
2023-01-25T08:28:57.106Z,102967.88
2023-01-25T08:32:58.567Z,102973.97
2023-01-25T08:37:00.780Z,102959.31
2023-01-25T08:41:11.226Z,102966.03
2023-01-25T08:45:12.696Z,102958.53
2023-01-25T08:49:14.231Z,102962.69
2023-01-25T08:53:15.715Z,102966.69
2023-01-25T08:57:17.266Z,102965.50
2023-01-25T09:01:20.100Z,102961.81
2023-01-25T09:05:21.627Z,102969.41
2023-01-25T09:09:24.888Z,102962.16
2023-01-25T09:13:26.363Z,102960.41
2023-01-25T09:17:27.850Z,102962.28
2023-01-25T09:21:30.095Z,102953.81
2023-01-25T09:25:31.610Z,102960.72
2023-01-25T09:29:33.105Z,102960.59
2023-01-25T09:33:36.841Z,102954.34
2023-01-25T09:37:39.027Z,102956.94
2023-01-25T09:42:15.791Z,102946.03
2023-01-25T09:46:41.495Z,102935.56
2023-01-25T09:51:07.291Z,102927.75
2023-01-25T09:55:18.415Z,102929.25
2023-01-25T09:59:26.273Z,102923.50
2023-01-25T10:03:38.546Z,102932.69
2023-01-25T10:08:02.129Z,102930.34
2023-01-25T10:12:15.634Z,102922.53
2023-01-25T10:16:47.221Z,102918.72
2023-01-25T10:21:17.874Z,102919.41
2023-01-25T10:25:23.980Z,102911.81
2023-01-25T10:29:33.700Z,102895.41
2023-01-25T10:33:40.627Z,102894.72
2023-01-25T10:37:43.177Z,102880.25
2023-01-25T10:41:53.760Z,102866.84
2023-01-25T10:45:55.254Z,102877.13
2023-01-25T10:49:58.799Z,102861.47
2023-01-25T10:54:03.153Z,102860.88
2023-01-25T10:58:04.622Z,102857.38
2023-01-25T11:02:45.945Z,102859.38
2023-01-25T11:06:50.289Z,102844.41
2023-01-25T11:10:53.491Z,102844.00
2023-01-25T11:14:55.016Z,102833.53
2023-01-25T11:18:58.681Z,102829.19
2023-01-25T11:23:00.134Z,102823.78
2023-01-25T11:27:22.702Z,102811.19
2023-01-25T11:31:24.315Z,102798.88
2023-01-25T11:35:33.028Z,102791.94
2023-01-25T11:39:54.030Z,102791.56
2023-01-25T11:44:06.304Z,102776.78
2023-01-25T11:48:43.557Z,102763.16
2023-01-25T11:53:09.240Z,102765.75
2023-01-25T11:57:45.271Z,102754.81
2023-01-25T12:01:49.384Z,102736.28
2023-01-25T12:06:10.086Z,102730.31
2023-01-25T12:10:38.499Z,102715.59
2023-01-25T12:14:45.864Z,102704.28
2023-01-25T12:18:47.255Z,102695.56
2023-01-25T12:23:01.698Z,102685.59
2023-01-25T12:27:31.326Z,102679.31
2023-01-25T12:31:38.692Z,102671.81
2023-01-25T12:36:05.771Z,102659.28
2023-01-25T12:40:17.290Z,102653.66
2023-01-25T12:44:21.630Z,102652.78
2023-01-25T12:48:30.239Z,102652.09
2023-01-25T12:52:38.985Z,102647.75
2023-01-25T12:56:48.797Z,102633.75
2023-01-25T13:01:27.563Z,102640.69
2023-01-25T13:05:41.154Z,102627.53
2023-01-25T13:09:57.624Z,102620.19
2023-01-25T13:14:20.604Z,102612.75
2023-01-25T13:18:24.764Z,102622.84
2023-01-25T13:22:49.562Z,102624.53
2023-01-25T13:26:59.530Z,102609.59
2023-01-25T13:31:01.175Z,102601.06
2023-01-25T13:35:03.521Z,102596.75
2023-01-25T13:39:32.724Z,102587.94
2023-01-25T13:43:34.242Z,102579.78
2023-01-25T13:47:38.168Z,102576.19
2023-01-25T13:51:40.819Z,102581.00
2023-01-25T13:55:46.471Z,102574.75
2023-01-25T13:59:49.615Z,102562.59
2023-01-25T14:03:56.598Z,102562.13
2023-01-25T14:07:58.088Z,102561.63
2023-01-25T14:12:02.257Z,102559.78
2023-01-25T14:16:09.127Z,102555.13
2023-01-25T14:20:19.531Z,102551.66
2023-01-25T14:24:21.074Z,102539.84
2023-01-25T14:28:22.683Z,102536.19
2023-01-25T14:32:26.529Z,102530.97
2023-01-25T14:36:33.088Z,102524.59
2023-01-25T14:40:34.628Z,102526.03
2023-01-25T14:44:36.566Z,102508.56
2023-01-25T14:48:42.613Z,102506.50
2023-01-25T14:52:44.128Z,102500.38
2023-01-25T14:56:49.811Z,102491.88
2023-01-25T15:00:55.526Z,102494.88
2023-01-25T15:05:14.697Z,102485.84
2023-01-25T15:09:42.178Z,102476.09
2023-01-25T15:13:43.701Z,102469.13
2023-01-25T15:17:50.730Z,102460.59
2023-01-25T15:21:54.666Z,102462.91
2023-01-25T15:25:58.162Z,102456.34
2023-01-25T15:30:00.234Z,102459.47
2023-01-25T15:34:01.937Z,102456.25
2023-01-25T15:38:03.389Z,102456.56
2023-01-25T15:42:06.135Z,102453.44
2023-01-25T15:46:17.869Z,102450.97
2023-01-25T15:50:20.122Z,102447.66
2023-01-25T15:54:22.194Z,102439.88
2023-01-25T15:58:31.398Z,102426.66
2023-01-25T16:02:32.899Z,102434.72
2023-01-25T16:06:52.295Z,102428.88
2023-01-25T16:10:54.429Z,102422.41
2023-01-25T16:14:55.849Z,102414.41
2023-01-25T16:18:57.275Z,102414.84
2023-01-25T16:22:58.887Z,102405.41
2023-01-25T16:27:01.019Z,102402.28
2023-01-25T16:31:02.644Z,102396.72
2023-01-25T16:35:04.380Z,102385.81
2023-01-25T16:39:15.310Z,102385.31
2023-01-25T16:43:16.761Z,102390.78
2023-01-25T16:47:18.213Z,102373.81
2023-01-25T16:51:25.131Z,102368.19
2023-01-25T16:55:26.604Z,102369.56
2023-01-25T16:59:28.260Z,102366.63
2023-01-25T17:03:29.777Z,102357.56
2023-01-25T17:07:31.228Z,102348.41
2023-01-25T17:11:36.343Z,102347.66
2023-01-25T17:15:37.913Z,102343.28
2023-01-25T17:19:39.456Z,102344.50
2023-01-25T17:23:41.776Z,102342.06
2023-01-25T17:27:43.210Z,102338.72
2023-01-25T17:31:44.747Z,102319.31
2023-01-25T17:35:46.296Z,102326.22
2023-01-25T17:39:48.725Z,102326.13
2023-01-25T17:43:52.535Z,102313.63
2023-01-25T17:47:53.989Z,102316.75
2023-01-25T17:51:55.636Z,102314.28
2023-01-25T17:56:02.747Z,102304.88
2023-01-25T18:00:11.739Z,102302.16
2023-01-25T18:04:17.353Z,102299.41
2023-01-25T18:08:18.812Z,102292.06
2023-01-25T18:12:20.753Z,102291.09
2023-01-25T18:16:24.000Z,102290.75
2023-01-25T18:20:25.854Z,102281.00
2023-01-25T18:24:32.653Z,102286.03
2023-01-25T18:28:34.359Z,102270.38
2023-01-25T18:32:35.894Z,102283.22
2023-01-25T18:36:37.338Z,102279.03
2023-01-25T18:40:40.085Z,102275.66
2023-01-25T18:44:43.337Z,102269.78
2023-01-25T18:48:46.991Z,102277.13
2023-01-25T18:52:48.421Z,102272.00
2023-01-25T18:56:49.867Z,102258.16
2023-01-25T19:01:01.237Z,102257.06
2023-01-25T19:05:02.861Z,102245.84
2023-01-25T19:09:04.414Z,102232.47
2023-01-25T19:13:05.851Z,102243.69
2023-01-25T19:17:08.303Z,102230.56
2023-01-25T19:21:10.739Z,102228.94
2023-01-25T19:25:12.624Z,102229.41
2023-01-25T19:29:15.227Z,102224.63
2023-01-25T19:33:17.158Z,102206.94
2023-01-25T19:37:18.631Z,102207.88
2023-01-25T19:41:22.553Z,102197.53
2023-01-25T19:45:24.161Z,102193.16
2023-01-25T19:49:25.659Z,102189.03
2023-01-25T19:53:27.179Z,102178.78
2023-01-25T19:57:28.590Z,102182.38
2023-01-25T20:01:30.249Z,102168.63
2023-01-25T20:05:31.756Z,102158.09
2023-01-25T20:09:33.169Z,102150.66
2023-01-25T20:13:34.603Z,102143.34
2023-01-25T20:17:36.600Z,102149.50
2023-01-25T20:21:39.568Z,102151.09
2023-01-25T20:25:41.029Z,102146.41
2023-01-25T20:29:42.531Z,102145.38
2023-01-25T20:33:44.112Z,102141.38
2023-01-25T20:37:46.735Z,102138.44
2023-01-25T20:41:53.155Z,102139.47
2023-01-25T20:45:56.531Z,102130.19
2023-01-25T20:49:57.945Z,102137.78
2023-01-25T20:53:59.686Z,102126.00
2023-01-25T20:58:01.289Z,102119.53
2023-01-25T21:02:03.042Z,102121.25
2023-01-25T21:06:04.668Z,102117.25
2023-01-25T21:10:06.601Z,102122.66
2023-01-25T21:14:08.125Z,102116.63
2023-01-25T21:18:09.581Z,102116.63
2023-01-25T21:22:11.053Z,102117.66
2023-01-25T21:26:20.997Z,102104.31
2023-01-25T21:30:23.231Z,102104.13
2023-01-25T21:34:24.798Z,102100.16
2023-01-25T21:38:26.356Z,102098.47
2023-01-25T21:42:27.855Z,102081.31
2023-01-25T21:46:29.290Z,102089.59
2023-01-25T21:50:49.513Z,102077.44
2023-01-25T21:54:50.975Z,102074.84
2023-01-25T21:58:52.637Z,102074.03
2023-01-25T22:02:54.123Z,102072.75
2023-01-25T22:06:55.567Z,102079.22
2023-01-25T22:11:07.531Z,102073.00
2023-01-25T22:15:09.238Z,102073.81
2023-01-25T22:19:10.742Z,102066.09
2023-01-25T22:23:12.151Z,102058.28
2023-01-25T22:27:44.572Z,102061.66
2023-01-25T22:31:46.068Z,102052.50
2023-01-25T22:35:47.578Z,102036.22
2023-01-25T22:39:49.093Z,102035.25
2023-01-25T22:43:51.483Z,102045.50
2023-01-25T22:47:52.908Z,102037.94
2023-01-25T22:51:54.372Z,102034.41
2023-01-25T22:56:06.531Z,102038.09
2023-01-25T23:00:09.144Z,102023.47
2023-01-25T23:04:11.109Z,102026.13
2023-01-25T23:08:12.607Z,102024.28
2023-01-25T23:12:14.502Z,102021.63
2023-01-25T23:16:15.975Z,102008.44
2023-01-25T23:20:18.088Z,101997.91
2023-01-25T23:24:19.633Z,101993.09
2023-01-25T23:28:21.162Z,101991.09
2023-01-25T23:32:22.983Z,101996.94
2023-01-25T23:36:33.468Z,101991.72
2023-01-25T23:40:34.893Z,101987.59
2023-01-25T23:44:36.315Z,101984.38
2023-01-25T23:48:37.763Z,101977.09
2023-01-25T23:52:39.204Z,101973.34
2023-01-25T23:56:40.709Z,101969.16
